CheckWX is a tool to help pilots better visualize weather data.  It is not intended as a substitute for an official pre-flight weather briefing.

17:31:03 UTC

LKPD METAR
Pardubice Airport
Pardubice, Czech Republic
Current

31 mins ago

LKPD 181700Z 24006KT CAVOK 30/15 Q1009 NOSIG RMK BLU BLU
Observed
Aug-18 @ 17:00 UTC
Wind
  • 240° at 6 KTS
Visibility
10,000+ meters
Flight Rules
VFR
Cloud Levels
  • Clear skies
Temperature
30°C / 86°F
Dewpoint
15°C / 59°F
Heat Index
29°C / 85°F
Humidity
40%
Altimeter
29.79" Hg
Pressure
1008.92 hPa
Previous

2 hours ago

LKPD 181600Z 27010KT CAVOK 32/14 Q1010 NOSIG RMK BLU BLU
Observed
Aug-18 @ 16:00 UTC
Wind
  • 270° at 10 KTS
Visibility
10,000+ meters
Flight Rules
VFR
Cloud Levels
  • Clear skies
Temperature
32°C / 90°F
Dewpoint
14°C / 57°F
Humidity
33%
Altimeter
29.82" Hg
Pressure
1009.92 hPa
Previous

3 hours ago

LKPD 181500Z 25010KT CAVOK 32/16 Q1010 NOSIG RMK BLU BLU
Observed
Aug-18 @ 15:00 UTC
Wind
  • 250° at 10 KTS
Visibility
10,000+ meters
Flight Rules
VFR
Cloud Levels
  • Clear skies
Temperature
32°C / 90°F
Dewpoint
16°C / 61°F
Humidity
38%
Altimeter
29.82" Hg
Pressure
1009.92 hPa